Cairns AAF (Fort Rucker) Air Field Fort Rucker,Ozark US
ICAO: KOZR
IATA: OZR
Category: Medium
Scheduled Services: No

Elevation: 301 ft
TransAlt. 18000 ft.

Airport Communications:
APP/DEP:121.1
ATIS:111.2
CLNC DEL:118.075
CTAF:135.2
GND:121.9
OPS:126.2
PMSV METRO:134.1
TWR:135.2

KOZR Zoom In..

Runways:

(A) RW 06 length 4546 ft width 150 ft
ILS 109.70 / hdg 64

(B) RW 18 length 5025 ft width 150 ft
---- / hdg 184

(C) RW 24 length 4546 ft width 150 ft
---- / hdg 244

(D) RW 36 length 5025 ft width 150 ft
---- / hdg 4

Location; KOZR
Day. 15 / Time. 22.21 Zulu
* Altimeter: 30.02
* Temperature: 25° c. 77°f.
* Wind from: 240° Speed 07 kn.
Dewpoint: 24° c.
Visibility: 10 Statute Miles.
Clouds: Clear (automated report).

KOZR 152221Z AUTO 24007KT 10SM CLR 25/24 A3002 RMK AO2 RAE05DZB05 SLP165


Wind From 240°
Speed 07 kn.

 
 
jpsmedia.com for Web Design worldairports.se 2018   terms of use